Nearby METAR Reports

 

KSNA - John Wayne Airport, California, USA
Distance from station: NE 2mi, 3km
Updated: Tue, 15-Jun-2021 2:53am PDT
Clear
Clear
 Wind from S
Wind: S 5 mph , 7 km/h
Temperature: 66°F , 19°C
Dew Point: 61°F , 16°C
Humidity: 83%
Barometer: 29.85 inHg , 1010.8 hPa
Clouds: Clear
Visibility: 10 miles , 16 km
2021/06/15 09:53 KSNA 150953Z AUTO 19004KT 10SM CLR 19/16 A2985 RMK AO2 SLP107 T01940156 $
KSLI - Los Alamitos Aaf, California, USA
Distance from station: NW 11mi, 18km
Updated: Tue, 15-Jun-2021 2:58am PDT
Clear
Clear
 Wind from calm
Wind: Calm
Temperature: 63°F , 17°C
Dew Point: 63°F , 17°C
Humidity: 100%
Barometer: 29.85 inHg , 1010.8 hPa
Clouds: Clear
Visibility: 10 miles , 16 km
2021/06/15 09:58 KSLI 150958Z AUTO 00000KT 10SM CLR 17/17 A2985 RMK AO2 SLP111 T01690169
 
KFUL - Fullerton Muni, California, USA
Distance from station: NNW 16mi, 26km
Updated: Tue, 15-Jun-2021 2:53am PDT
Clear
Clear
 Wind from calm
Wind: Calm
Temperature: 66°F , 19°C
Dew Point: 57°F , 14°C
Humidity: 73%
Barometer: 29.84 inHg , 1010.5 hPa
Clouds: Clear
Visibility: 10 miles , 16 km
2021/06/15 09:53 KFUL 150953Z AUTO 00000KT 10SM CLR 19/14 A2984 RMK AO2 SLP103 T01940144
KLGB - Long Beach Muni, California, USA
Distance from station: NW 19mi, 30km
Updated: Tue, 15-Jun-2021 2:53am PDT
Clear
Clear
 Wind from calm
Wind: Calm
Temperature: 64°F , 18°C
Dew Point: 61°F , 16°C
Humidity: 88%
Barometer: 29.84 inHg , 1010.5 hPa
Clouds: Clear
Visibility: 9 miles , 14 km
2021/06/15 09:53 KLGB 150953Z AUTO 00000KT 9SM CLR 18/16 A2984 RMK AO2 SLP106 T01830156 $
 
KAJO - Corona Muni, California, USA
Distance from station: NE 24mi, 39km
Updated: Tue, 15-Jun-2021 2:56am PDT
Clear
Clear
 Wind from calm
Wind: Calm
Temperature: 61°F , 16°C
Dew Point: 55°F , 13°C
Humidity: 83%
Barometer: 29.87 inHg , 1011.5 hPa
Clouds: Clear
Visibility: 10 miles , 16 km
2021/06/15 09:56 KAJO 150956Z AUTO 00000KT 10SM CLR 16/13 A2987 RMK AO2 SLP106 T01610133
KTOA - Torrance Municip, California, USA
Distance from station: WNW 26mi, 42km
Updated: Mon, 14-Jun-2021 7:48pm PDT
NOT Current
Clear
Clear
 Wind from SW
Wind: SW 8 mph , 13 km/h, Gust: 17 mph , 28 km/h
Temperature: 73°F , 23°C
Dew Point: 57°F , 14°C
Humidity: 57%
Barometer: 29.86 inHg , 1011.2 hPa
Clouds: Clear
Visibility: 10 miles , 16 km
2021/06/15 02:48 KTOA 150248Z 22007G15KT 10SM SKC 23/14 A2986
 
KCNO - Chino, California, USA
Distance from station: NE 28mi, 45km
Updated: Tue, 15-Jun-2021 2:53am PDT
Clear
Clear
 Wind from calm
Wind: Calm
Temperature: 66°F , 19°C
Dew Point: 55°F , 13°C
Humidity: 68%
Barometer: 29.87 inHg , 1011.5 hPa
Clouds: Clear
Visibility: 10 miles , 16 km
2021/06/15 09:53 KCNO 150953Z AUTO 00000KT 10SM CLR 19/13 A2987 RMK AO2 SLP107 T01940133
KEMT - El Monte, California, USA
Distance from station: NNW 30mi, 48km
Updated: Mon, 14-Jun-2021 7:45pm PDT
NOT Current
Clear
Clear
 Wind from SSW
Wind: SSW 6 mph , 9 km/h
Temperature: 81°F , 27°C
Heat Index: 81°F , 27°C
Dew Point: 55°F , 13°C
Humidity: 42%
Barometer: 29.86 inHg , 1011.2 hPa
Clouds: Clear
Visibility: 10 miles , 16 km
2021/06/15 02:45 KEMT 150245Z 21005KT 10SM CLR 27/13 A2986 RMK POM VORTAC OTS
 
KHHR - Hawthorne, California, USA
Distance from station: NW 31mi, 50km
Updated: Tue, 15-Jun-2021 2:53am PDT
Clear
Clear
 Wind from calm
Wind: Calm
Temperature: 64°F , 18°C
Dew Point: 57°F , 14°C
Humidity: 78%
Barometer: 29.85 inHg , 1010.8 hPa
Clouds: Clear
Visibility: 10 miles , 16 km
2021/06/15 09:53 KHHR 150953Z AUTO 00000KT 10SM CLR 18/14 A2985 RMK AO2 SLP108 T01780139
KPOC - La Verne/Bracket, California, USA
Distance from station: NNE 32mi, 52km
Updated: Mon, 14-Jun-2021 4:47pm PDT
NOT Current
Clear
Clear
 Wind from W
Wind: W 12 mph , 19 km/h
Temperature: 91°F , 33°C
Dew Point: 52°F , 11°C
Humidity: 26%
Barometer: 29.88 inHg , 1011.9 hPa
Clouds: Clear
Visibility: 10 miles , 16 km
2021/06/14 23:47 KPOC 142347Z 26010KT 10SM CLR 33/11 A2988
 
KONT - Ontario, California, USA
Distance from station: NNE 33mi, 53km
Updated: Tue, 15-Jun-2021 2:53am PDT
Few Clouds
Few Clouds
 Wind from calm
Wind: Calm
Temperature: 73°F , 23°C
Dew Point: 54°F , 12°C
Humidity: 50%
Barometer: 29.86 inHg , 1011.2 hPa
Clouds: Few Clouds
Visibility: 10 miles , 16 km
Cloud details: Few Clouds 25000 ft
2021/06/15 09:53 KONT 150953Z 00000KT 10SM FEW250 23/12 A2986 RMK AO2 SLP091 T02280122
KRAL - Riverside, California, USA
Distance from station: NE 33mi, 53km
Updated: Tue, 15-Jun-2021 2:53am PDT
Clear
Clear
 Wind from SE
Wind: SE 3 mph , 6 km/h
Temperature: 70°F , 21°C
Dew Point: 54°F , 12°C
Humidity: 57%
Barometer: 29.87 inHg , 1011.5 hPa
Clouds: Clear
Visibility: 10 miles , 16 km
2021/06/15 09:53 KRAL 150953Z AUTO 14003KT 10SM CLR 21/12 A2987 RMK AO2 SLP097 T02110117
 
KCQT - USC/Los Angeles, California, USA
Distance from station: NW 34mi, 54km
Updated: Tue, 15-Jun-2021 2:52am PDT
Clear
Clear
 Wind from calm
Wind: Calm
Temperature: 66°F , 19°C
Dew Point: 57°F , 14°C
Humidity: 73%
Barometer: 29.84 inHg , 1010.5 hPa
Clouds: Clear
Visibility: 10 miles , 16 km
2021/06/15 09:52 KCQT 150952Z AUTO 00000KT 10SM CLR 19/14 A2984 RMK AO2 SLP104 T01940139
KLAX - LAX/Los Angeles, California, USA
Distance from station: NW 34mi, 55km
Updated: Tue, 15-Jun-2021 2:53am PDT
Clear
Clear
 Wind from calm
Wind: Calm
Temperature: 63°F , 17°C
Dew Point: 57°F , 14°C
Humidity: 83%
Barometer: 29.86 inHg , 1011.2 hPa
Clouds: Clear
Visibility: 10 miles , 16 km
2021/06/15 09:53 KLAX 150953Z 00000KT 10SM CLR 17/14 A2986 RMK AO2 SLP108 T01720144
 
KAVX - Avalon, California, USA
Distance from station: WSW 35mi, 56km
Updated: Tue, 15-Jun-2021 2:51am PDT
Clear
Clear
 Wind from WNW
Wind: WNW 9 mph , 15 km/h
Temperature: 73°F , 23°C
Dew Point: 52°F , 11°C
Humidity: 47%
Barometer: 29.92 inHg , 1013.2 hPa
Clouds: Clear
Visibility: 10 miles , 16 km
2021/06/15 09:51 KAVX 150951Z AUTO 30008KT 10SM CLR 23/11 A2992 RMK AO2 SLP098 T02330111